sensor_id;sensor_type;location;lat;lon;timestamp;temperature;humidity
25200;DHT22;33094;48.782;9.162;2022-12-18T03:12:11;-6.60;99.90
25200;DHT22;33094;48.782;9.162;2022-12-18T03:30:03;-6.30;99.90
25200;DHT22;33094;48.782;9.162;2022-12-18T03:36:35;-6.60;99.90
25200;DHT22;33094;48.782;9.162;2022-12-18T03:56:10;-6.50;99.90
25200;DHT22;33094;48.782;9.162;2022-12-18T03:59:17;-8.00;99.90
25200;DHT22;33094;48.782;9.162;2022-12-18T04:09:17;-6.50;99.90
25200;DHT22;33094;48.782;9.162;2022-12-18T04:19:00;-6.50;99.90
25200;DHT22;33094;48.782;9.162;2022-12-18T04:28:49;-6.40;99.90
25200;DHT22;33094;48.782;9.162;2022-12-18T05:11:04;-6.30;99.90
25200;DHT22;33094;48.782;9.162;2022-12-18T05:17:13;-6.40;99.90
25200;DHT22;33094;48.782;9.162;2022-12-18T05:20:05;-6.30;99.90
25200;DHT22;33094;48.782;9.162;2022-12-18T05:23:25;-6.40;99.90
25200;DHT22;33094;48.782;9.162;2022-12-18T05:26:34;-6.40;99.90
25200;DHT22;33094;48.782;9.162;2022-12-18T05:29:03;-6.40;99.90
25200;DHT22;33094;48.782;9.162;2022-12-18T05:32:09;-6.50;99.90
25200;DHT22;33094;48.782;9.162;2022-12-18T05:40:29;-6.90;99.90
25200;DHT22;33094;48.782;9.162;2022-12-18T05:43:07;-6.80;99.90
25200;DHT22;33094;48.782;9.162;2022-12-18T05:45:50;-6.80;99.90
25200;DHT22;33094;48.782;9.162;2022-12-18T05:48:30;-6.80;99.90
25200;DHT22;33094;48.782;9.162;2022-12-18T05:51:53;-6.80;99.90
25200;DHT22;33094;48.782;9.162;2022-12-18T05:57:07;-6.80;99.90
25200;DHT22;33094;48.782;9.162;2022-12-18T06:05:45;-6.90;99.90
25200;DHT22;33094;48.782;9.162;2022-12-18T06:08:40;-6.90;99.90
25200;DHT22;33094;48.782;9.162;2022-12-18T06:11:22;-6.90;99.90
25200;DHT22;33094;48.782;9.162;2022-12-18T06:13:54;-7.00;99.90
25200;DHT22;33094;48.782;9.162;2022-12-18T06:16:45;-7.00;99.90
25200;DHT22;33094;48.782;9.162;2022-12-18T06:22:47;-7.10;99.90
25200;DHT22;33094;48.782;9.162;2022-12-18T06:25:43;-7.20;99.90
25200;DHT22;33094;48.782;9.162;2022-12-18T06:28:25;-7.20;99.90
25200;DHT22;33094;48.782;9.162;2022-12-18T06:31:26;-7.20;99.90
25200;DHT22;33094;48.782;9.162;2022-12-18T06:44:42;-7.60;99.90
25200;DHT22;33094;48.782;9.162;2022-12-18T06:47:55;-8.10;99.90
25200;DHT22;33094;48.782;9.162;2022-12-18T06:50:32;-7.90;99.90
25200;DHT22;33094;48.782;9.162;2022-12-18T06:53:18;-7.70;99.90
25200;DHT22;33094;48.782;9.162;2022-12-18T06:59:48;-7.80;99.90
25200;DHT22;33094;48.782;9.162;2022-12-18T07:03:00;-7.80;99.90
25200;DHT22;33094;48.782;9.162;2022-12-18T07:05:48;-7.80;99.90
25200;DHT22;33094;48.782;9.162;2022-12-18T07:10:43;-7.70;99.90
25200;DHT22;33094;48.782;9.162;2022-12-18T07:13:24;-7.60;99.90
25200;DHT22;33094;48.782;9.162;2022-12-18T07:21:11;-7.60;99.90
25200;DHT22;33094;48.782;9.162;2022-12-18T07:23:44;-7.50;99.90
25200;DHT22;33094;48.782;9.162;2022-12-18T07:26:21;-7.50;99.90
25200;DHT22;33094;48.782;9.162;2022-12-18T07:28:55;-7.50;99.90
25200;DHT22;33094;48.782;9.162;2022-12-18T07:34:10;-7.60;99.90
25200;DHT22;33094;48.782;9.162;2022-12-18T07:36:40;-7.60;99.90
25200;DHT22;33094;48.782;9.162;2022-12-18T07:39:18;-7.60;99.90
25200;DHT22;33094;48.782;9.162;2022-12-18T07:47:20;-7.20;99.90
25200;DHT22;33094;48.782;9.162;2022-12-18T07:52:36;-7.10;99.90
25200;DHT22;33094;48.782;9.162;2022-12-18T08:04:54;-7.40;99.90
25200;DHT22;33094;48.782;9.162;2022-12-18T08:34:07;-6.90;99.90
25200;DHT22;33094;48.782;9.162;2022-12-18T08:38:59;-6.80;99.90
25200;DHT22;33094;48.782;9.162;2022-12-18T08:41:26;-6.80;99.90
25200;DHT22;33094;48.782;9.162;2022-12-18T08:46:39;-6.60;99.90
25200;DHT22;33094;48.782;9.162;2022-12-18T08:49:13;-6.70;99.90
25200;DHT22;33094;48.782;9.162;2022-12-18T08:56:32;-8.10;99.90
25200;DHT22;33094;48.782;9.162;2022-12-18T09:03:53;-6.40;99.90
25200;DHT22;33094;48.782;9.162;2022-12-18T09:06:23;-6.30;99.90
25200;DHT22;33094;48.782;9.162;2022-12-18T09:31:25;-4.80;99.90
25200;DHT22;33094;48.782;9.162;2022-12-18T09:33:51;-2.10;99.90
25200;DHT22;33094;48.782;9.162;2022-12-18T09:36:18;-5.10;99.90
25200;DHT22;33094;48.782;9.162;2022-12-18T09:41:33;-2.70;99.90
25200;DHT22;33094;48.782;9.162;2022-12-18T09:46:49;-4.10;99.90
25200;DHT22;33094;48.782;9.162;2022-12-18T09:49:19;-4.30;99.90
25200;DHT22;33094;48.782;9.162;2022-12-18T09:51:55;-4.40;99.90
25200;DHT22;33094;48.782;9.162;2022-12-18T09:54:33;-4.50;99.90
25200;DHT22;33094;48.782;9.162;2022-12-18T09:59:37;-4.50;99.90
25200;DHT22;33094;48.782;9.162;2022-12-18T10:02:20;-4.50;99.90
25200;DHT22;33094;48.782;9.162;2022-12-18T10:07:49;-4.40;99.90
25200;DHT22;33094;48.782;9.162;2022-12-18T10:21:11;-3.90;99.90
25200;DHT22;33094;48.782;9.162;2022-12-18T10:23:54;-3.90;99.90
25200;DHT22;33094;48.782;9.162;2022-12-18T10:31:21;-3.70;99.90
25200;DHT22;33094;48.782;9.162;2022-12-18T10:38:40;-3.40;99.90
25200;DHT22;33094;48.782;9.162;2022-12-18T10:46:17;-2.50;99.90
25200;DHT22;33094;48.782;9.162;2022-12-18T10:48:53;-2.20;99.90
25200;DHT22;33094;48.782;9.162;2022-12-18T10:51:49;-1.30;99.90
25200;DHT22;33094;48.782;9.162;2022-12-18T10:54:22;-0.40;99.90
25200;DHT22;33094;48.782;9.162;2022-12-18T10:56:49;0.90;99.90
25200;DHT22;33094;48.782;9.162;2022-12-18T10:59:17;1.60;99.90
25200;DHT22;33094;48.782;9.162;2022-12-18T11:01:52;2.70;99.90
25200;DHT22;33094;48.782;9.162;2022-12-18T11:04:27;2.90;99.90
25200;DHT22;33094;48.782;9.162;2022-12-18T11:09:27;3.00;99.90
25200;DHT22;33094;48.782;9.162;2022-12-18T11:11:55;5.20;99.90
25200;DHT22;33094;48.782;9.162;2022-12-18T11:16:51;5.90;99.90
25200;DHT22;33094;48.782;9.162;2022-12-18T11:19:28;6.00;99.90
25200;DHT22;33094;48.782;9.162;2022-12-18T11:21:55;6.90;99.90
25200;DHT22;33094;48.782;9.162;2022-12-18T11:24:33;6.90;99.30
25200;DHT22;33094;48.782;9.162;2022-12-18T11:27:04;3.90;98.10
25200;DHT22;33094;48.782;9.162;2022-12-18T11:29:37;6.70;98.80
25200;DHT22;33094;48.782;9.162;2022-12-18T11:32:23;3.30;97.60
25200;DHT22;33094;48.782;9.162;2022-12-18T11:34:58;6.90;99.00
25200;DHT22;33094;48.782;9.162;2022-12-18T11:37:25;5.00;98.90
25200;DHT22;33094;48.782;9.162;2022-12-18T11:40:17;8.80;99.30
25200;DHT22;33094;48.782;9.162;2022-12-18T11:43:02;7.30;98.60
25200;DHT22;33094;48.782;9.162;2022-12-18T11:45:35;4.10;98.40
25200;DHT22;33094;48.782;9.162;2022-12-18T11:48:22;6.40;99.40
25200;DHT22;33094;48.782;9.162;2022-12-18T11:50:55;2.10;97.70
25200;DHT22;33094;48.782;9.162;2022-12-18T11:53:21;5.80;99.80
25200;DHT22;33094;48.782;9.162;2022-12-18T11:55:59;4.10;98.30
25200;DHT22;33094;48.782;9.162;2022-12-18T12:01:55;3.70;99.50
25200;DHT22;33094;48.782;9.162;2022-12-18T12:17:50;2.00;99.90
25200;DHT22;33094;48.782;9.162;2022-12-18T12:25:56;2.60;99.90
25200;DHT22;33094;48.782;9.162;2022-12-18T12:28:54;1.90;99.90
25200;DHT22;33094;48.782;9.162;2022-12-18T12:39:41;1.00;99.90
25200;DHT22;33094;48.782;9.162;2022-12-18T12:42:35;1.00;99.90
25200;DHT22;33094;48.782;9.162;2022-12-18T12:45:53;0.90;99.90
25200;DHT22;33094;48.782;9.162;2022-12-18T12:48:27;0.90;99.90
25200;DHT22;33094;48.782;9.162;2022-12-18T12:50:55;0.80;99.90
25200;DHT22;33094;48.782;9.162;2022-12-18T12:53:31;1.40;99.90
25200;DHT22;33094;48.782;9.162;2022-12-18T12:55:58;1.40;99.90
25200;DHT22;33094;48.782;9.162;2022-12-18T13:08:57;0.30;99.90
25200;DHT22;33094;48.782;9.162;2022-12-18T13:14:36;-0.20;99.90
25200;DHT22;33094;48.782;9.162;2022-12-18T13:17:15;-0.20;99.90
25200;DHT22;33094;48.782;9.162;2022-12-18T13:22:30;-0.20;99.90
25200;DHT22;33094;48.782;9.162;2022-12-18T13:41:25;-0.80;99.90
25200;DHT22;33094;48.782;9.162;2022-12-18T13:43:53;-0.20;99.90
25200;DHT22;33094;48.782;9.162;2022-12-18T13:51:17;-0.20;99.90
25200;DHT22;33094;48.782;9.162;2022-12-18T13:56:29;-0.30;99.90
25200;DHT22;33094;48.782;9.162;2022-12-18T13:59:21;-0.30;99.90
25200;DHT22;33094;48.782;9.162;2022-12-18T14:01:51;-0.40;99.90
25200;DHT22;33094;48.782;9.162;2022-12-18T14:04:22;-0.30;99.90
25200;DHT22;33094;48.782;9.162;2022-12-18T14:06:55;-0.30;99.90
25200;DHT22;33094;48.782;9.162;2022-12-18T14:09:25;-0.20;99.90
25200;DHT22;33094;48.782;9.162;2022-12-18T14:11:52;-0.40;99.90
25200;DHT22;33094;48.782;9.162;2022-12-18T14:14:40;-0.40;99.90
25200;DHT22;33094;48.782;9.162;2022-12-18T14:17:09;-0.50;99.90
25200;DHT22;33094;48.782;9.162;2022-12-18T14:19:35;-0.60;99.90
25200;DHT22;33094;48.782;9.162;2022-12-18T14:22:01;-0.50;99.90
25200;DHT22;33094;48.782;9.162;2022-12-18T14:27:17;-0.50;99.90
25200;DHT22;33094;48.782;9.162;2022-12-18T14:32:13;-0.70;99.90
25200;DHT22;33094;48.782;9.162;2022-12-18T14:34:41;-0.60;99.90
25200;DHT22;33094;48.782;9.162;2022-12-18T14:37:10;-0.70;99.90
25200;DHT22;33094;48.782;9.162;2022-12-18T14:42:11;-0.70;99.90
25200;DHT22;33094;48.782;9.162;2022-12-18T14:44:37;-0.90;99.90
25200;DHT22;33094;48.782;9.162;2022-12-18T14:49:33;-1.00;99.90
25200;DHT22;33094;48.782;9.162;2022-12-18T14:52:13;-1.10;99.90
25200;DHT22;33094;48.782;9.162;2022-12-18T14:54:46;-1.10;99.90
25200;DHT22;33094;48.782;9.162;2022-12-18T14:57:23;-1.20;99.90
25200;DHT22;33094;48.782;9.162;2022-12-18T14:59:50;-1.40;99.90
25200;DHT22;33094;48.782;9.162;2022-12-18T15:07:47;-1.40;99.90
25200;DHT22;33094;48.782;9.162;2022-12-18T15:10:20;-0.90;99.90
25200;DHT22;33094;48.782;9.162;2022-12-18T15:18:15;1.50;99.90
25200;DHT22;33094;48.782;9.162;2022-12-18T15:21:08;-2.10;99.90
25200;DHT22;33094;48.782;9.162;2022-12-18T15:23:46;-1.80;99.90
25200;DHT22;33094;48.782;9.162;2022-12-18T15:26:53;-2.70;99.90
25200;DHT22;33094;48.782;9.162;2022-12-18T15:29:34;0.00;99.90
25200;DHT22;33094;48.782;9.162;2022-12-18T15:32:03;1.40;99.90
25200;DHT22;33094;48.782;9.162;2022-12-18T15:34:36;-1.70;99.90
25200;DHT22;33094;48.782;9.162;2022-12-18T15:37:01;-1.70;99.90
25200;DHT22;33094;48.782;9.162;2022-12-18T15:39:30;-2.60;99.90
25200;DHT22;33094;48.782;9.162;2022-12-18T15:42:10;-0.50;99.90
25200;DHT22;33094;48.782;9.162;2022-12-18T15:45:04;-1.90;99.90
25200;DHT22;33094;48.782;9.162;2022-12-18T15:47:49;-1.90;99.90
25200;DHT22;33094;48.782;9.162;2022-12-18T15:50:15;1.30;99.90
25200;DHT22;33094;48.782;9.162;2022-12-18T15:52:45;0.50;99.90
25200;DHT22;33094;48.782;9.162;2022-12-18T15:55:24;0.60;99.90
25200;DHT22;33094;48.782;9.162;2022-12-18T15:58:10;-2.00;99.90
25200;DHT22;33094;48.782;9.162;2022-12-18T16:00:38;0.10;99.90
25200;DHT22;33094;48.782;9.162;2022-12-18T16:31:07;-2.50;99.90
25200;DHT22;33094;48.782;9.162;2022-12-18T16:47:32;-2.00;99.90
25200;DHT22;33094;48.782;9.162;2022-12-18T16:50:21;-1.90;99.90
25200;DHT22;33094;48.782;9.162;2022-12-18T16:56:23;-2.10;99.90
25200;DHT22;33094;48.782;9.162;2022-12-18T16:58:55;-0.30;99.90
25200;DHT22;33094;48.782;9.162;2022-12-18T17:04:08;-2.00;99.90
25200;DHT22;33094;48.782;9.162;2022-12-18T17:06:52;-0.50;99.90
25200;DHT22;33094;48.782;9.162;2022-12-18T17:09:23;-2.00;99.90
25200;DHT22;33094;48.782;9.162;2022-12-18T17:12:14;-2.50;99.90
25200;DHT22;33094;48.782;9.162;2022-12-18T17:17:32;-2.00;99.90
25200;DHT22;33094;48.782;9.162;2022-12-18T17:20:13;-0.40;99.90
25200;DHT22;33094;48.782;9.162;2022-12-18T17:23:04;-4.20;99.90
25200;DHT22;33094;48.782;9.162;2022-12-18T17:25:58;-0.30;99.90
25200;DHT22;33094;48.782;9.162;2022-12-18T17:28:35;-0.80;99.90
25200;DHT22;33094;48.782;9.162;2022-12-18T17:31:01;-2.60;99.90
25200;DHT22;33094;48.782;9.162;2022-12-18T17:33:27;0.80;99.90
25200;DHT22;33094;48.782;9.162;2022-12-18T17:35:53;-2.00;99.90
25200;DHT22;33094;48.782;9.162;2022-12-18T17:38:19;-2.20;99.90
25200;DHT22;33094;48.782;9.162;2022-12-18T17:40:44;0.10;99.90
25200;DHT22;33094;48.782;9.162;2022-12-18T17:43:10;-1.60;99.90
25200;DHT22;33094;48.782;9.162;2022-12-18T17:45:37;-1.00;99.90
25200;DHT22;33094;48.782;9.162;2022-12-18T17:48:04;-1.30;99.90
25200;DHT22;33094;48.782;9.162;2022-12-18T17:50:32;-1.90;99.90
25200;DHT22;33094;48.782;9.162;2022-12-18T17:52:59;-1.90;99.90
25200;DHT22;33094;48.782;9.162;2022-12-18T17:55:24;0.70;99.90
25200;DHT22;33094;48.782;9.162;2022-12-18T17:57:51;-0.40;99.90
25200;DHT22;33094;48.782;9.162;2022-12-18T18:00:16;0.90;99.90
25200;DHT22;33094;48.782;9.162;2022-12-18T18:02:45;-1.70;99.90
25200;DHT22;33094;48.782;9.162;2022-12-18T18:05:11;0.80;99.90
25200;DHT22;33094;48.782;9.162;2022-12-18T18:07:38;1.20;99.90
25200;DHT22;33094;48.782;9.162;2022-12-18T18:10:06;1.40;99.90
25200;DHT22;33094;48.782;9.162;2022-12-18T18:12:35;-1.90;99.90
25200;DHT22;33094;48.782;9.162;2022-12-18T18:15:20;-0.10;99.90
25200;DHT22;33094;48.782;9.162;2022-12-18T18:17:54;0.80;99.90
25200;DHT22;33094;48.782;9.162;2022-12-18T18:20:20;-1.70;99.90
25200;DHT22;33094;48.782;9.162;2022-12-18T18:22:46;0.80;99.90
25200;DHT22;33094;48.782;9.162;2022-12-18T18:25:11;-1.60;99.90
25200;DHT22;33094;48.782;9.162;2022-12-18T18:27:37;0.40;99.90
25200;DHT22;33094;48.782;9.162;2022-12-18T18:30:04;0.60;99.90
25200;DHT22;33094;48.782;9.162;2022-12-18T18:32:29;-1.70;99.90
25200;DHT22;33094;48.782;9.162;2022-12-18T18:37:21;-1.70;99.90
25200;DHT22;33094;48.782;9.162;2022-12-18T18:39:47;0.90;99.90
25200;DHT22;33094;48.782;9.162;2022-12-18T18:42:14;1.00;99.90
25200;DHT22;33094;48.782;9.162;2022-12-18T19:08:45;-1.40;99.90
25200;DHT22;33094;48.782;9.162;2022-12-18T19:11:12;1.40;99.90
25200;DHT22;33094;48.782;9.162;2022-12-18T19:13:58;-1.20;99.90
25200;DHT22;33094;48.782;9.162;2022-12-18T19:16:25;0.50;99.90
25200;DHT22;33094;48.782;9.162;2022-12-18T19:18:59;-0.50;99.90
25200;DHT22;33094;48.782;9.162;2022-12-18T19:35:36;-1.50;99.90
25200;DHT22;33094;48.782;9.162;2022-12-18T19:42:08;-1.20;99.90
25200;DHT22;33094;48.782;9.162;2022-12-18T19:45:22;-2.20;99.90
25200;DHT22;33094;48.782;9.162;2022-12-18T19:48:28;0.20;99.90
25200;DHT22;33094;48.782;9.162;2022-12-18T19:51:10;-0.10;99.90
25200;DHT22;33094;48.782;9.162;2022-12-18T19:57:23;-1.10;99.90
25200;DHT22;33094;48.782;9.162;2022-12-18T20:00:01;0.60;99.90
25200;DHT22;33094;48.782;9.162;2022-12-18T20:02:31;-0.60;99.90
25200;DHT22;33094;48.782;9.162;2022-12-18T20:05:05;-1.00;99.90
25200;DHT22;33094;48.782;9.162;2022-12-18T20:07:31;-1.00;99.90
25200;DHT22;33094;48.782;9.162;2022-12-18T20:09:59;1.50;99.90
25200;DHT22;33094;48.782;9.162;2022-12-18T20:12:47;1.60;99.90
25200;DHT22;33094;48.782;9.162;2022-12-18T20:15:35;-1.00;99.90
25200;DHT22;33094;48.782;9.162;2022-12-18T20:18:01;1.30;99.90
25200;DHT22;33094;48.782;9.162;2022-12-18T20:20:29;1.50;99.90
25200;DHT22;33094;48.782;9.162;2022-12-18T20:23:05;1.30;99.90
25200;DHT22;33094;48.782;9.162;2022-12-18T20:25:46;2.00;99.90
25200;DHT22;33094;48.782;9.162;2022-12-18T20:28:27;-1.20;99.90
25200;DHT22;33094;48.782;9.162;2022-12-18T20:31:08;1.30;99.90
25200;DHT22;33094;48.782;9.162;2022-12-18T20:33:35;-1.20;99.90
25200;DHT22;33094;48.782;9.162;2022-12-18T20:36:13;-1.10;99.90
25200;DHT22;33094;48.782;9.162;2022-12-18T20:39:09;-1.90;99.90
25200;DHT22;33094;48.782;9.162;2022-12-18T20:42:15;1.70;99.90
25200;DHT22;33094;48.782;9.162;2022-12-18T20:48:17;-1.50;99.90
25200;DHT22;33094;48.782;9.162;2022-12-18T20:51:27;0.90;99.90
25200;DHT22;33094;48.782;9.162;2022-12-18T20:54:26;-1.30;99.90
25200;DHT22;33094;48.782;9.162;2022-12-18T21:04:20;-1.90;99.90
